sensor_id;sensor_type;location;lat;lon;timestamp;pressure;altitude;pressure_sealevel;temperature;humidity
13027;BME280;6580;42.680;23.324;2022-11-20T00:01:18;94478.63;;;18.33;74.99
13027;BME280;6580;42.680;23.324;2022-11-20T00:03:48;94505.19;;;18.30;73.81
13027;BME280;6580;42.680;23.324;2022-11-20T00:06:21;94512.00;;;18.32;73.78
13027;BME280;6580;42.680;23.324;2022-11-20T00:08:55;94485.38;;;18.60;69.37
13027;BME280;6580;42.680;23.324;2022-11-20T00:11:24;94533.00;;;18.48;71.90
13027;BME280;6580;42.680;23.324;2022-11-20T00:13:55;94544.44;;;18.26;73.43
13027;BME280;6580;42.680;23.324;2022-11-20T00:16:24;94526.03;;;17.92;79.18
13027;BME280;6580;42.680;23.324;2022-11-20T00:18:56;94523.47;;;17.41;84.70
13027;BME280;6580;42.680;23.324;2022-11-20T00:21:24;94525.34;;;17.65;80.22
13027;BME280;6580;42.680;23.324;2022-11-20T00:23:53;94486.94;;;18.49;70.73
13027;BME280;6580;42.680;23.324;2022-11-20T00:26:22;94476.00;;;18.98;66.90
13027;BME280;6580;42.680;23.324;2022-11-20T00:28:51;94508.50;;;19.03;66.96
13027;BME280;6580;42.680;23.324;2022-11-20T00:31:18;94500.72;;;18.95;68.32
13027;BME280;6580;42.680;23.324;2022-11-20T00:33:46;94487.22;;;19.31;61.46
13027;BME280;6580;42.680;23.324;2022-11-20T00:36:16;94481.31;;;19.52;61.87
13027;BME280;6580;42.680;23.324;2022-11-20T00:38:45;94483.16;;;19.51;61.27
13027;BME280;6580;42.680;23.324;2022-11-20T00:41:13;94455.25;;;19.57;60.83
13027;BME280;6580;42.680;23.324;2022-11-20T00:43:43;94470.22;;;19.83;58.44
13027;BME280;6580;42.680;23.324;2022-11-20T00:46:20;94479.16;;;19.95;58.41
13027;BME280;6580;42.680;23.324;2022-11-20T00:48:50;94500.91;;;19.88;57.43
13027;BME280;6580;42.680;23.324;2022-11-20T00:51:23;94500.91;;;19.88;57.58
13027;BME280;6580;42.680;23.324;2022-11-20T00:53:55;94502.84;;;19.99;55.67
13027;BME280;6580;42.680;23.324;2022-11-20T00:56:22;94492.25;;;19.98;56.70
13027;BME280;6580;42.680;23.324;2022-11-20T00:58:49;94483.41;;;19.91;56.97
13027;BME280;6580;42.680;23.324;2022-11-20T01:01:18;94488.63;;;20.04;56.44
13027;BME280;6580;42.680;23.324;2022-11-20T01:03:47;94471.06;;;19.95;56.66
13027;BME280;6580;42.680;23.324;2022-11-20T01:06:16;94470.25;;;19.94;56.33
13027;BME280;6580;42.680;23.324;2022-11-20T01:08:45;94493.53;;;19.95;56.67
13027;BME280;6580;42.680;23.324;2022-11-20T01:11:16;94466.41;;;20.02;55.94
13027;BME280;6580;42.680;23.324;2022-11-20T01:13:44;94475.94;;;20.16;55.67
13027;BME280;6580;42.680;23.324;2022-11-20T01:16:14;94459.38;;;20.12;55.95
13027;BME280;6580;42.680;23.324;2022-11-20T01:18:43;94452.38;;;19.93;56.52
13027;BME280;6580;42.680;23.324;2022-11-20T01:21:15;94425.53;;;20.10;55.58
13027;BME280;6580;42.680;23.324;2022-11-20T01:23:45;94453.72;;;20.14;55.90
13027;BME280;6580;42.680;23.324;2022-11-20T01:26:16;94448.50;;;19.89;56.36
13027;BME280;6580;42.680;23.324;2022-11-20T01:28:44;94440.97;;;19.91;55.68
13027;BME280;6580;42.680;23.324;2022-11-20T01:31:12;94454.28;;;20.04;55.59
13027;BME280;6580;42.680;23.324;2022-11-20T01:33:40;94450.06;;;20.08;55.47
13027;BME280;6580;42.680;23.324;2022-11-20T01:36:10;94443.56;;;19.86;56.57
13027;BME280;6580;42.680;23.324;2022-11-20T01:38:39;94462.00;;;19.89;56.75
13027;BME280;6580;42.680;23.324;2022-11-20T01:41:09;94435.91;;;19.95;56.07
13027;BME280;6580;42.680;23.324;2022-11-20T01:43:58;94421.50;;;20.01;55.86
13027;BME280;6580;42.680;23.324;2022-11-20T01:46:26;94445.66;;;19.84;56.47
13027;BME280;6580;42.680;23.324;2022-11-20T01:48:58;94433.63;;;19.57;58.10
13027;BME280;6580;42.680;23.324;2022-11-20T01:51:30;94441.19;;;19.67;57.24
13027;BME280;6580;42.680;23.324;2022-11-20T01:54:08;94460.47;;;19.82;57.21
13027;BME280;6580;42.680;23.324;2022-11-20T01:56:38;94415.63;;;20.04;55.48
13027;BME280;6580;42.680;23.324;2022-11-20T01:59:08;94435.63;;;20.03;56.18
13027;BME280;6580;42.680;23.324;2022-11-20T02:01:37;94443.16;;;20.12;55.50
13027;BME280;6580;42.680;23.324;2022-11-20T02:04:06;94433.16;;;20.01;55.71
13027;BME280;6580;42.680;23.324;2022-11-20T02:06:37;94466.34;;;19.90;56.21
13027;BME280;6580;42.680;23.324;2022-11-20T02:09:07;94441.50;;;20.11;56.10
13027;BME280;6580;42.680;23.324;2022-11-20T02:11:35;94440.31;;;20.19;54.89
13027;BME280;6580;42.680;23.324;2022-11-20T02:14:04;94448.19;;;20.20;54.98
13027;BME280;6580;42.680;23.324;2022-11-20T02:16:35;94446.38;;;19.91;56.86
13027;BME280;6580;42.680;23.324;2022-11-20T02:19:09;94444.38;;;19.75;56.47
13027;BME280;6580;42.680;23.324;2022-11-20T02:21:49;94455.50;;;19.67;55.97
13027;BME280;6580;42.680;23.324;2022-11-20T02:24:22;94445.41;;;19.74;56.54
13027;BME280;6580;42.680;23.324;2022-11-20T02:26:51;94434.16;;;19.89;55.89
13027;BME280;6580;42.680;23.324;2022-11-20T02:29:23;94427.34;;;19.86;55.18
13027;BME280;6580;42.680;23.324;2022-11-20T02:31:55;94437.03;;;20.05;55.26
13027;BME280;6580;42.680;23.324;2022-11-20T02:34:23;94444.03;;;19.83;56.53
13027;BME280;6580;42.680;23.324;2022-11-20T02:36:53;94451.31;;;19.94;56.31
13027;BME280;6580;42.680;23.324;2022-11-20T02:39:29;94451.25;;;20.01;55.70
13027;BME280;6580;42.680;23.324;2022-11-20T02:41:56;94450.19;;;19.61;57.20
13027;BME280;6580;42.680;23.324;2022-11-20T02:44:29;94466.13;;;19.80;56.95
13027;BME280;6580;42.680;23.324;2022-11-20T02:46:58;94465.16;;;19.86;57.54
13027;BME280;6580;42.680;23.324;2022-11-20T02:49:28;94473.06;;;19.88;57.32
13027;BME280;6580;42.680;23.324;2022-11-20T02:51:55;94461.41;;;19.87;57.26
13027;BME280;6580;42.680;23.324;2022-11-20T02:54:24;94476.94;;;19.80;57.59
13027;BME280;6580;42.680;23.324;2022-11-20T02:56:51;94476.53;;;19.77;58.38
13027;BME280;6580;42.680;23.324;2022-11-20T02:59:19;94469.59;;;19.69;58.54
13027;BME280;6580;42.680;23.324;2022-11-20T03:01:47;94483.47;;;19.61;59.83
13027;BME280;6580;42.680;23.324;2022-11-20T03:04:15;94471.00;;;19.60;60.48
13027;BME280;6580;42.680;23.324;2022-11-20T03:06:41;94481.25;;;19.70;60.53
13027;BME280;6580;42.680;23.324;2022-11-20T03:09:08;94500.88;;;19.47;61.54
13027;BME280;6580;42.680;23.324;2022-11-20T03:11:36;94490.69;;;19.49;61.64
13027;BME280;6580;42.680;23.324;2022-11-20T03:14:05;94504.97;;;19.68;60.83
13027;BME280;6580;42.680;23.324;2022-11-20T03:16:32;94488.25;;;19.59;61.45
13027;BME280;6580;42.680;23.324;2022-11-20T03:18:59;94492.03;;;19.58;62.10
13027;BME280;6580;42.680;23.324;2022-11-20T03:21:30;94502.25;;;19.68;61.53
13027;BME280;6580;42.680;23.324;2022-11-20T03:23:59;94505.53;;;19.58;62.25
13027;BME280;6580;42.680;23.324;2022-11-20T03:26:26;94510.63;;;19.48;62.84
13027;BME280;6580;42.680;23.324;2022-11-20T03:28:57;94488.97;;;19.55;62.41
13027;BME280;6580;42.680;23.324;2022-11-20T03:31:26;94507.53;;;19.63;62.19
13027;BME280;6580;42.680;23.324;2022-11-20T03:33:54;94518.28;;;19.51;63.36
13027;BME280;6580;42.680;23.324;2022-11-20T03:36:26;94510.50;;;19.73;62.07
13027;BME280;6580;42.680;23.324;2022-11-20T03:38:55;94510.78;;;19.53;62.96
13027;BME280;6580;42.680;23.324;2022-11-20T03:41:24;94532.13;;;19.43;64.50
13027;BME280;6580;42.680;23.324;2022-11-20T03:43:58;94537.03;;;19.35;64.33
13027;BME280;6580;42.680;23.324;2022-11-20T03:46:26;94518.88;;;19.24;64.56
13027;BME280;6580;42.680;23.324;2022-11-20T03:48:59;94532.38;;;19.24;65.30
13027;BME280;6580;42.680;23.324;2022-11-20T03:51:27;94544.44;;;19.40;64.25
13027;BME280;6580;42.680;23.324;2022-11-20T03:53:58;94534.22;;;19.42;64.24
13027;BME280;6580;42.680;23.324;2022-11-20T03:56:28;94528.63;;;19.25;64.78
13027;BME280;6580;42.680;23.324;2022-11-20T03:58:56;94536.72;;;19.25;64.26
13027;BME280;6580;42.680;23.324;2022-11-20T04:01:25;94529.53;;;19.37;63.68
13027;BME280;6580;42.680;23.324;2022-11-20T04:03:54;94523.91;;;19.21;64.23
13027;BME280;6580;42.680;23.324;2022-11-20T04:06:22;94525.81;;;19.32;62.68
13027;BME280;6580;42.680;23.324;2022-11-20T04:08:53;94542.34;;;19.24;65.34
13027;BME280;6580;42.680;23.324;2022-11-20T04:11:21;94532.59;;;19.23;63.09
13027;BME280;6580;42.680;23.324;2022-11-20T04:13:50;94518.50;;;19.21;63.20
13027;BME280;6580;42.680;23.324;2022-11-20T04:16:20;94529.59;;;19.31;63.53
13027;BME280;6580;42.680;23.324;2022-11-20T04:18:47;94541.31;;;19.25;63.82
13027;BME280;6580;42.680;23.324;2022-11-20T04:21:14;94527.56;;;19.26;63.06
13027;BME280;6580;42.680;23.324;2022-11-20T04:23:41;94517.00;;;19.25;62.73
13027;BME280;6580;42.680;23.324;2022-11-20T04:26:09;94521.06;;;19.16;64.01
13027;BME280;6580;42.680;23.324;2022-11-20T04:28:40;94524.41;;;19.29;63.41
13027;BME280;6580;42.680;23.324;2022-11-20T04:31:09;94542.41;;;19.35;63.28
13027;BME280;6580;42.680;23.324;2022-11-20T04:33:38;94539.47;;;19.37;63.58
13027;BME280;6580;42.680;23.324;2022-11-20T04:36:07;94548.22;;;19.21;63.65
13027;BME280;6580;42.680;23.324;2022-11-20T04:38:34;94548.94;;;18.92;65.48
13027;BME280;6580;42.680;23.324;2022-11-20T04:41:02;94546.69;;;19.07;65.42
13027;BME280;6580;42.680;23.324;2022-11-20T04:43:31;94549.75;;;19.10;65.10
13027;BME280;6580;42.680;23.324;2022-11-20T04:46:00;94538.63;;;19.25;64.46
13027;BME280;6580;42.680;23.324;2022-11-20T04:48:28;94529.00;;;19.29;64.06
13027;BME280;6580;42.680;23.324;2022-11-20T04:50:57;94520.16;;;19.22;63.62
13027;BME280;6580;42.680;23.324;2022-11-20T04:53:25;94534.78;;;19.14;64.88
13027;BME280;6580;42.680;23.324;2022-11-20T04:55:59;94522.72;;;19.17;64.78
13027;BME280;6580;42.680;23.324;2022-11-20T04:58:27;94530.34;;;19.02;64.76
13027;BME280;6580;42.680;23.324;2022-11-20T05:01:00;94504.31;;;19.25;64.21
13027;BME280;6580;42.680;23.324;2022-11-20T05:03:30;94470.59;;;18.98;63.84
13027;BME280;6580;42.680;23.324;2022-11-20T05:06:00;94497.81;;;18.97;64.96
13027;BME280;6580;42.680;23.324;2022-11-20T05:08:27;94496.81;;;19.09;63.17
13027;BME280;6580;42.680;23.324;2022-11-20T05:10:59;94514.41;;;19.12;63.08
13027;BME280;6580;42.680;23.324;2022-11-20T05:13:29;94503.50;;;19.07;63.41
13027;BME280;6580;42.680;23.324;2022-11-20T05:16:01;94491.16;;;18.99;64.08
13027;BME280;6580;42.680;23.324;2022-11-20T05:18:28;94495.09;;;18.97;64.32
13027;BME280;6580;42.680;23.324;2022-11-20T05:20:55;94502.47;;;18.90;65.42
13027;BME280;6580;42.680;23.324;2022-11-20T05:23:26;94497.06;;;18.90;65.04
13027;BME280;6580;42.680;23.324;2022-11-20T05:25:54;94481.47;;;18.92;65.19
13027;BME280;6580;42.680;23.324;2022-11-20T05:28:21;94481.34;;;18.69;66.06
13027;BME280;6580;42.680;23.324;2022-11-20T05:30:49;94488.50;;;18.75;66.80
13027;BME280;6580;42.680;23.324;2022-11-20T05:33:17;94455.69;;;18.78;66.67
13027;BME280;6580;42.680;23.324;2022-11-20T05:35:45;94491.69;;;18.90;66.69
13027;BME280;6580;42.680;23.324;2022-11-20T05:38:14;94498.13;;;18.89;66.66
13027;BME280;6580;42.680;23.324;2022-11-20T05:40:42;94504.84;;;19.16;65.42
13027;BME280;6580;42.680;23.324;2022-11-20T05:43:10;94518.06;;;19.24;64.62
13027;BME280;6580;42.680;23.324;2022-11-20T05:45:37;94491.81;;;19.13;65.31
13027;BME280;6580;42.680;23.324;2022-11-20T05:48:06;94486.91;;;19.03;65.61
13027;BME280;6580;42.680;23.324;2022-11-20T05:50:33;94494.66;;;19.00;68.52
13027;BME280;6580;42.680;23.324;2022-11-20T05:53:00;94517.91;;;18.65;74.02
13027;BME280;6580;42.680;23.324;2022-11-20T05:55:28;94493.84;;;18.63;76.06
13027;BME280;6580;42.680;23.324;2022-11-20T05:57:56;94498.13;;;18.53;77.24
13027;BME280;6580;42.680;23.324;2022-11-20T06:00:24;94511.44;;;18.48;78.69
13027;BME280;6580;42.680;23.324;2022-11-20T06:02:53;94514.72;;;18.32;79.87
13027;BME280;6580;42.680;23.324;2022-11-20T06:05:21;94513.41;;;18.10;81.68
13027;BME280;6580;42.680;23.324;2022-11-20T06:07:49;94508.03;;;18.10;82.27
13027;BME280;6580;42.680;23.324;2022-11-20T06:10:18;94521.50;;;18.10;81.74
13027;BME280;6580;42.680;23.324;2022-11-20T06:12:46;94520.31;;;18.31;80.70
13027;BME280;6580;42.680;23.324;2022-11-20T06:15:17;94518.00;;;18.34;80.03
13027;BME280;6580;42.680;23.324;2022-11-20T06:17:44;94521.88;;;18.38;79.22
13027;BME280;6580;42.680;23.324;2022-11-20T06:20:11;94501.47;;;18.48;78.61
13027;BME280;6580;42.680;23.324;2022-11-20T06:22:38;94511.03;;;18.27;79.37
13027;BME280;6580;42.680;23.324;2022-11-20T06:25:07;94515.31;;;18.34;79.53
13027;BME280;6580;42.680;23.324;2022-11-20T06:27:34;94510.13;;;18.33;79.01
13027;BME280;6580;42.680;23.324;2022-11-20T06:30:03;94518.31;;;18.44;78.78
13027;BME280;6580;42.680;23.324;2022-11-20T06:32:32;94522.38;;;18.53;78.16
13027;BME280;6580;42.680;23.324;2022-11-20T06:35:00;94513.53;;;18.46;78.34
13027;BME280;6580;42.680;23.324;2022-11-20T06:37:26;94505.72;;;18.38;79.30
13027;BME280;6580;42.680;23.324;2022-11-20T06:39:57;94525.66;;;18.37;78.87
13027;BME280;6580;42.680;23.324;2022-11-20T06:42:25;94544.41;;;18.50;78.07
13027;BME280;6580;42.680;23.324;2022-11-20T06:44:53;94530.09;;;18.67;75.76
13027;BME280;6580;42.680;23.324;2022-11-20T06:47:20;94538.59;;;18.71;75.44
13027;BME280;6580;42.680;23.324;2022-11-20T06:49:48;94535.59;;;18.79;75.56
13027;BME280;6580;42.680;23.324;2022-11-20T06:52:16;94542.53;;;19.04;74.35
13027;BME280;6580;42.680;23.324;2022-11-20T06:54:42;94535.91;;;19.07;73.02
13027;BME280;6580;42.680;23.324;2022-11-20T06:57:09;94555.47;;;19.20;72.34
13027;BME280;6580;42.680;23.324;2022-11-20T06:59:38;94544.63;;;19.27;71.91
13027;BME280;6580;42.680;23.324;2022-11-20T07:02:09;94546.09;;;19.23;72.06
13027;BME280;6580;42.680;23.324;2022-11-20T07:04:36;94555.94;;;19.17;72.19
13027;BME280;6580;42.680;23.324;2022-11-20T07:07:06;94538.06;;;18.98;72.85
13027;BME280;6580;42.680;23.324;2022-11-20T07:09:32;94548.94;;;18.74;71.32
13027;BME280;6580;42.680;23.324;2022-11-20T07:11:59;94560.63;;;18.86;70.83
13027;BME280;6580;42.680;23.324;2022-11-20T07:14:26;94549.84;;;19.04;72.30
13027;BME280;6580;42.680;23.324;2022-11-20T07:16:54;94546.09;;;19.05;72.36
13027;BME280;6580;42.680;23.324;2022-11-20T07:19:21;94543.59;;;19.03;69.01
13027;BME280;6580;42.680;23.324;2022-11-20T07:21:48;94551.41;;;19.11;67.16
13027;BME280;6580;42.680;23.324;2022-11-20T07:24:17;94554.22;;;19.23;66.53
13027;BME280;6580;42.680;23.324;2022-11-20T07:26:46;94550.88;;;19.39;66.30
13027;BME280;6580;42.680;23.324;2022-11-20T07:29:14;94552.31;;;19.70;64.15
13027;BME280;6580;42.680;23.324;2022-11-20T07:31:41;94554.50;;;19.91;61.91
13027;BME280;6580;42.680;23.324;2022-11-20T07:34:08;94558.59;;;19.94;63.69
13027;BME280;6580;42.680;23.324;2022-11-20T07:36:36;94562.47;;;19.86;62.72
13027;BME280;6580;42.680;23.324;2022-11-20T07:39:03;94564.25;;;19.92;62.88
13027;BME280;6580;42.680;23.324;2022-11-20T07:41:31;94564.56;;;19.73;62.94
13027;BME280;6580;42.680;23.324;2022-11-20T07:43:59;94566.59;;;19.89;63.38
13027;BME280;6580;42.680;23.324;2022-11-20T07:46:25;94560.06;;;19.96;63.94
13027;BME280;6580;42.680;23.324;2022-11-20T07:48:53;94566.22;;;19.85;65.42
13027;BME280;6580;42.680;23.324;2022-11-20T07:51:19;94558.47;;;19.77;64.73
13027;BME280;6580;42.680;23.324;2022-11-20T07:53:47;94558.72;;;19.58;64.74
13027;BME280;6580;42.680;23.324;2022-11-20T07:56:16;94557.00;;;19.63;65.26
13027;BME280;6580;42.680;23.324;2022-11-20T07:58:45;94564.66;;;19.48;65.63
13027;BME280;6580;42.680;23.324;2022-11-20T08:01:12;94569.50;;;19.46;65.56
13027;BME280;6580;42.680;23.324;2022-11-20T08:03:40;94569.81;;;19.21;66.55
13027;BME280;6580;42.680;23.324;2022-11-20T08:06:07;94572.78;;;19.31;66.43
13027;BME280;6580;42.680;23.324;2022-11-20T08:08:34;94568.06;;;19.44;66.48
13027;BME280;6580;42.680;23.324;2022-11-20T08:11:01;94559.56;;;19.58;65.60
13027;BME280;6580;42.680;23.324;2022-11-20T08:13:47;94558.91;;;19.74;64.29
13027;BME280;6580;42.680;23.324;2022-11-20T08:16:32;94552.06;;;19.60;65.61
13027;BME280;6580;42.680;23.324;2022-11-20T08:18:59;94535.38;;;19.63;64.60
13027;BME280;6580;42.680;23.324;2022-11-20T08:21:28;94538.66;;;19.65;66.03
13027;BME280;6580;42.680;23.324;2022-11-20T08:23:54;94560.91;;;19.49;65.66
13027;BME280;6580;42.680;23.324;2022-11-20T08:26:21;94558.06;;;19.62;65.98
13027;BME280;6580;42.680;23.324;2022-11-20T08:28:53;94580.06;;;19.77;64.84
13027;BME280;6580;42.680;23.324;2022-11-20T08:31:22;94584.19;;;19.80;64.26
13027;BME280;6580;42.680;23.324;2022-11-20T08:33:49;94586.19;;;19.84;65.43
13027;BME280;6580;42.680;23.324;2022-11-20T08:36:17;94598.09;;;19.95;64.80
13027;BME280;6580;42.680;23.324;2022-11-20T08:38:46;94584.06;;;20.04;63.69
13027;BME280;6580;42.680;23.324;2022-11-20T08:41:17;94565.00;;;19.70;64.16
13027;BME280;6580;42.680;23.324;2022-11-20T08:43:57;94587.78;;;19.62;65.46
13027;BME280;6580;42.680;23.324;2022-11-20T08:46:25;94582.59;;;19.43;65.67
13027;BME280;6580;42.680;23.324;2022-11-20T08:48:53;94607.50;;;19.63;66.81
13027;BME280;6580;42.680;23.324;2022-11-20T08:51:20;94606.19;;;19.83;68.57
13027;BME280;6580;42.680;23.324;2022-11-20T08:53:47;94614.81;;;19.44;77.03
13027;BME280;6580;42.680;23.324;2022-11-20T08:56:16;94616.09;;;19.00;79.41
13027;BME280;6580;42.680;23.324;2022-11-20T08:58:43;94604.19;;;19.07;83.79
13027;BME280;6580;42.680;23.324;2022-11-20T09:01:12;94602.94;;;19.10;82.14
13027;BME280;6580;42.680;23.324;2022-11-20T09:03:40;94604.00;;;19.27;81.81
13027;BME280;6580;42.680;23.324;2022-11-20T09:06:07;94601.25;;;19.15;79.47
13027;BME280;6580;42.680;23.324;2022-11-20T09:08:34;94607.72;;;19.08;80.76
13027;BME280;6580;42.680;23.324;2022-11-20T09:11:03;94617.00;;;19.18;81.60
13027;BME280;6580;42.680;23.324;2022-11-20T09:13:33;94617.34;;;19.22;82.26
13027;BME280;6580;42.680;23.324;2022-11-20T09:16:02;94612.31;;;19.43;87.21
13027;BME280;6580;42.680;23.324;2022-11-20T09:18:32;94626.94;;;19.18;89.57
13027;BME280;6580;42.680;23.324;2022-11-20T09:21:00;94622.72;;;19.04;92.26
13027;BME280;6580;42.680;23.324;2022-11-20T09:23:31;94618.34;;;18.85;96.74
13027;BME280;6580;42.680;23.324;2022-11-20T09:26:01;94629.03;;;18.49;97.42
13027;BME280;6580;42.680;23.324;2022-11-20T09:28:29;94618.94;;;18.44;94.11
13027;BME280;6580;42.680;23.324;2022-11-20T09:30:56;94614.84;;;18.36;94.77
13027;BME280;6580;42.680;23.324;2022-11-20T09:33:23;94607.13;;;18.08;90.88
13027;BME280;6580;42.680;23.324;2022-11-20T09:35:51;94615.22;;;18.08;95.48
13027;BME280;6580;42.680;23.324;2022-11-20T09:38:19;94587.66;;;18.06;98.18
13027;BME280;6580;42.680;23.324;2022-11-20T09:40:50;94579.84;;;18.29;98.73
13027;BME280;6580;42.680;23.324;2022-11-20T09:43:22;94574.88;;;18.50;97.49
13027;BME280;6580;42.680;23.324;2022-11-20T09:46:05;94581.91;;;18.03;100.00
13027;BME280;6580;42.680;23.324;2022-11-20T09:48:44;94579.13;;;18.40;100.00
13027;BME280;6580;42.680;23.324;2022-11-20T09:51:25;94569.00;;;18.96;97.54
13027;BME280;6580;42.680;23.324;2022-11-20T09:54:07;94566.75;;;19.17;93.48
13027;BME280;6580;42.680;23.324;2022-11-20T09:56:42;94555.47;;;19.20;100.00
13027;BME280;6580;42.680;23.324;2022-11-20T09:59:22;94568.84;;;19.62;100.00
13027;BME280;6580;42.680;23.324;2022-11-20T10:01:50;94560.13;;;20.31;92.05
13027;BME280;6580;42.680;23.324;2022-11-20T10:04:19;94559.75;;;21.53;86.80
13027;BME280;6580;42.680;23.324;2022-11-20T10:06:52;94546.41;;;21.63;82.07
13027;BME280;6580;42.680;23.324;2022-11-20T10:09:27;94552.09;;;22.34;76.21
13027;BME280;6580;42.680;23.324;2022-11-20T10:12:06;94539.03;;;22.47;74.96
13027;BME280;6580;42.680;23.324;2022-11-20T10:14:46;94521.69;;;23.40;79.04
13027;BME280;6580;42.680;23.324;2022-11-20T10:17:22;94536.72;;;23.69;70.38
13027;BME280;6580;42.680;23.324;2022-11-20T10:20:07;94526.53;;;23.17;72.57
13027;BME280;6580;42.680;23.324;2022-11-20T10:22:48;94547.22;;;22.19;71.87
13027;BME280;6580;42.680;23.324;2022-11-20T10:25:23;94548.09;;;21.41;79.49
13027;BME280;6580;42.680;23.324;2022-11-20T10:28:00;94542.44;;;20.92;83.71
13027;BME280;6580;42.680;23.324;2022-11-20T10:30:34;94548.81;;;20.86;81.02
13027;BME280;6580;42.680;23.324;2022-11-20T10:33:09;94555.75;;;21.44;83.89
13027;BME280;6580;42.680;23.324;2022-11-20T10:35:42;94550.22;;;21.39;79.47
13027;BME280;6580;42.680;23.324;2022-11-20T10:38:15;94546.88;;;20.75;81.37
13027;BME280;6580;42.680;23.324;2022-11-20T10:40:52;94544.53;;;20.67;84.86
13027;BME280;6580;42.680;23.324;2022-11-20T10:43:45;94557.72;;;20.52;85.34
13027;BME280;6580;42.680;23.324;2022-11-20T10:46:22;94563.31;;;20.16;89.75
13027;BME280;6580;42.680;23.324;2022-11-20T10:48:49;94549.41;;;20.01;89.41
13027;BME280;6580;42.680;23.324;2022-11-20T10:51:30;94536.94;;;19.71;93.74
13027;BME280;6580;42.680;23.324;2022-11-20T10:54:11;94541.66;;;19.28;94.63
13027;BME280;6580;42.680;23.324;2022-11-20T10:56:44;94572.41;;;19.45;99.37
13027;BME280;6580;42.680;23.324;2022-11-20T10:59:28;94545.50;;;18.85;99.44
13027;BME280;6580;42.680;23.324;2022-11-20T11:01:59;94566.75;;;18.75;100.00
13027;BME280;6580;42.680;23.324;2022-11-20T11:04:38;94586.84;;;18.79;100.00
13027;BME280;6580;42.680;23.324;2022-11-20T11:07:12;94609.19;;;18.86;100.00
13027;BME280;6580;42.680;23.324;2022-11-20T11:09:46;94607.94;;;18.64;100.00
13027;BME280;6580;42.680;23.324;2022-11-20T11:12:14;94616.78;;;17.91;100.00
13027;BME280;6580;42.680;23.324;2022-11-20T11:14:48;94626.75;;;17.53;100.00
13027;BME280;6580;42.680;23.324;2022-11-20T11:17:23;94654.88;;;16.68;100.00
13027;BME280;6580;42.680;23.324;2022-11-20T11:20:15;94633.78;;;16.78;100.00
13027;BME280;6580;42.680;23.324;2022-11-20T11:22:44;94625.53;;;16.28;100.00
13027;BME280;6580;42.680;23.324;2022-11-20T11:25:25;94626.97;;;16.11;100.00
13027;BME280;6580;42.680;23.324;2022-11-20T11:27:54;94607.25;;;15.65;100.00
13027;BME280;6580;42.680;23.324;2022-11-20T11:30:23;94588.28;;;15.73;100.00
13027;BME280;6580;42.680;23.324;2022-11-20T11:32:50;94614.88;;;15.55;100.00
13027;BME280;6580;42.680;23.324;2022-11-20T11:35:23;94601.47;;;15.49;100.00
13027;BME280;6580;42.680;23.324;2022-11-20T11:37:51;94598.78;;;15.55;100.00
13027;BME280;6580;42.680;23.324;2022-11-20T11:40:23;94587.25;;;15.55;100.00
13027;BME280;6580;42.680;23.324;2022-11-20T11:42:57;94578.53;;;15.46;100.00
13027;BME280;6580;42.680;23.324;2022-11-20T11:45:26;94578.34;;;15.54;100.00
13027;BME280;6580;42.680;23.324;2022-11-20T11:47:56;94574.00;;;15.47;100.00
13027;BME280;6580;42.680;23.324;2022-11-20T11:50:25;94578.81;;;15.77;100.00
13027;BME280;6580;42.680;23.324;2022-11-20T11:53:07;94587.41;;;15.53;100.00
13027;BME280;6580;42.680;23.324;2022-11-20T11:55:40;94564.75;;;15.69;100.00
13027;BME280;6580;42.680;23.324;2022-11-20T11:58:19;94576.13;;;15.84;98.99
13027;BME280;6580;42.680;23.324;2022-11-20T12:00:53;94574.25;;;15.84;100.00
13027;BME280;6580;42.680;23.324;2022-11-20T12:03:27;94573.44;;;16.03;98.18
13027;BME280;6580;42.680;23.324;2022-11-20T12:05:57;94572.19;;;16.12;90.25
13027;BME280;6580;42.680;23.324;2022-11-20T12:08:29;94565.16;;;16.18;93.58
13027;BME280;6580;42.680;23.324;2022-11-20T12:11:04;94559.19;;;16.09;97.54
13027;BME280;6580;42.680;23.324;2022-11-20T12:13:40;94572.19;;;16.19;100.00
13027;BME280;6580;42.680;23.324;2022-11-20T12:16:13;94565.19;;;16.05;100.00
13027;BME280;6580;42.680;23.324;2022-11-20T12:18:42;94563.09;;;15.68;97.75
13027;BME280;6580;42.680;23.324;2022-11-20T12:21:18;94555.44;;;15.45;96.32
13027;BME280;6580;42.680;23.324;2022-11-20T12:24:08;94563.50;;;15.65;97.50
13027;BME280;6580;42.680;23.324;2022-11-20T12:26:52;94568.78;;;15.39;100.00
13027;BME280;6580;42.680;23.324;2022-11-20T12:29:32;94577.47;;;15.41;100.00
13027;BME280;6580;42.680;23.324;2022-11-20T12:32:32;94596.88;;;15.43;100.00
13027;BME280;6580;42.680;23.324;2022-11-20T12:35:10;94599.03;;;15.73;100.00
13027;BME280;6580;42.680;23.324;2022-11-20T12:37:46;94563.94;;;15.81;100.00
13027;BME280;6580;42.680;23.324;2022-11-20T12:40:28;94538.31;;;15.66;100.00
13027;BME280;6580;42.680;23.324;2022-11-20T12:43:07;94519.09;;;15.75;100.00
13027;BME280;6580;42.680;23.324;2022-11-20T12:46:13;94500.72;;;15.98;98.64
13027;BME280;6580;42.680;23.324;2022-11-20T12:49:08;94479.44;;;15.90;100.00
13027;BME280;6580;42.680;23.324;2022-11-20T12:52:10;94510.41;;;16.12;100.00
13027;BME280;6580;42.680;23.324;2022-11-20T12:54:57;94508.16;;;15.96;100.00
13027;BME280;6580;42.680;23.324;2022-11-20T12:57:31;94505.47;;;15.64;100.00
13027;BME280;6580;42.680;23.324;2022-11-20T13:00:09;94508.94;;;15.26;100.00
13027;BME280;6580;42.680;23.324;2022-11-20T13:02:50;94522.59;;;15.43;100.00
13027;BME280;6580;42.680;23.324;2022-11-20T13:05:33;94532.59;;;15.09;100.00
13027;BME280;6580;42.680;23.324;2022-11-20T13:08:03;94527.81;;;14.98;100.00
13027;BME280;6580;42.680;23.324;2022-11-20T13:10:37;94520.72;;;14.84;100.00
13027;BME280;6580;42.680;23.324;2022-11-20T13:13:13;94531.56;;;15.17;100.00
13027;BME280;6580;42.680;23.324;2022-11-20T13:15:50;94546.09;;;15.28;100.00
13027;BME280;6580;42.680;23.324;2022-11-20T13:18:22;94546.00;;;15.09;100.00